createdAt,value
2018-11-28T00:00:39.480Z,9.10
2018-11-28T00:03:09.608Z,9.12
2018-11-28T00:05:56.360Z,9.14
2018-11-28T00:08:44.357Z,9.14
2018-11-28T00:11:30.331Z,9.15
2018-11-28T00:14:18.178Z,9.16
2018-11-28T00:17:04.437Z,9.19
2018-11-28T00:19:51.210Z,9.21
2018-11-28T00:22:20.830Z,9.22
2018-11-28T00:24:50.734Z,9.24
2018-11-28T00:27:20.838Z,9.26
2018-11-28T00:29:50.179Z,9.28
2018-11-28T00:32:19.309Z,9.30
2018-11-28T00:34:48.493Z,9.33
2018-11-28T00:37:17.689Z,9.35
2018-11-28T00:39:46.790Z,9.37
2018-11-28T00:42:18.029Z,9.39
2018-11-28T00:44:47.211Z,9.40
2018-11-28T00:47:16.332Z,9.42
2018-11-28T00:49:45.450Z,9.44
2018-11-28T00:52:14.741Z,9.45
2018-11-28T00:54:43.843Z,9.46
2018-11-28T00:57:13.010Z,9.48
2018-11-28T00:59:42.196Z,9.50
2018-11-28T01:02:11.401Z,9.52
2018-11-28T01:04:41.687Z,9.52
2018-11-28T01:07:11.215Z,9.53
2018-11-28T01:09:40.459Z,9.53
2018-11-28T01:12:09.586Z,9.53
2018-11-28T01:14:38.745Z,9.53
2018-11-28T01:17:08.157Z,9.53
2018-11-28T01:19:38.167Z,9.53
2018-11-28T01:22:07.439Z,9.55
2018-11-28T01:24:36.595Z,9.57
2018-11-28T01:27:06.107Z,9.60
2018-11-28T01:29:35.229Z,9.61
2018-11-28T01:32:04.344Z,9.65
2018-11-28T01:34:33.501Z,9.65
2018-11-28T01:37:02.637Z,9.64
2018-11-28T01:39:31.809Z,9.63
2018-11-28T01:42:01.021Z,9.62
2018-11-28T01:44:30.253Z,9.63
2018-11-28T01:46:59.528Z,9.62
2018-11-28T01:49:28.579Z,9.65
2018-11-28T01:51:57.676Z,9.67
2018-11-28T01:54:26.775Z,9.69
2018-11-28T01:56:55.865Z,9.72
2018-11-28T01:59:25.000Z,9.75
2018-11-28T02:01:54.170Z,9.77
2018-11-28T02:04:23.379Z,9.80
2018-11-28T02:06:52.690Z,9.83
2018-11-28T02:09:21.821Z,9.82
2018-11-28T02:11:51.013Z,9.82
2018-11-28T02:14:20.194Z,9.81
2018-11-28T02:16:49.431Z,9.81
2018-11-28T02:19:18.563Z,9.82
2018-11-28T02:21:47.719Z,9.82
2018-11-28T02:24:16.906Z,9.84
2018-11-28T02:26:45.993Z,9.88
2018-11-28T02:29:15.207Z,9.91
2018-11-28T02:31:44.352Z,9.93
2018-11-28T02:34:13.631Z,9.97
2018-11-28T02:36:42.781Z,9.99
2018-11-28T02:39:12.503Z,10.03
2018-11-28T02:41:41.752Z,10.07
2018-11-28T02:44:10.958Z,10.09
2018-11-28T02:46:40.186Z,10.12
2018-11-28T02:49:09.381Z,10.15
2018-11-28T02:51:38.744Z,10.18
2018-11-28T02:54:07.874Z,10.21
2018-11-28T02:56:37.066Z,10.23
2018-11-28T02:59:06.315Z,10.23
2018-11-28T03:01:35.463Z,10.27
2018-11-28T03:04:04.730Z,10.30
2018-11-28T03:06:33.900Z,10.31
2018-11-28T03:09:03.160Z,10.32
2018-11-28T03:11:33.184Z,10.33
2018-11-28T03:14:02.331Z,10.32
2018-11-28T03:16:32.917Z,10.29
2018-11-28T03:19:02.268Z,10.27
2018-11-28T03:21:31.517Z,10.31
2018-11-28T03:24:02.345Z,10.38
2018-11-28T03:26:31.559Z,10.48
2018-11-28T03:29:00.715Z,10.57
2018-11-28T03:31:30.035Z,10.61
2018-11-28T03:34:01.742Z,10.64
2018-11-28T03:36:31.474Z,10.66
2018-11-28T03:39:00.755Z,10.67
2018-11-28T03:41:30.260Z,10.72
2018-11-28T03:43:59.463Z,10.80
2018-11-28T03:46:28.878Z,10.89
2018-11-28T03:48:58.104Z,10.98
2018-11-28T03:51:27.260Z,11.00
2018-11-28T03:53:57.341Z,11.02
2018-11-28T03:56:26.817Z,11.04
2018-11-28T03:58:56.429Z,11.09
2018-11-28T04:01:25.592Z,11.08
2018-11-28T04:03:56.378Z,11.04
2018-11-28T04:06:26.268Z,11.03
2018-11-28T04:08:55.388Z,11.03
2018-11-28T04:11:24.635Z,11.06
2018-11-28T04:13:54.273Z,11.05
2018-11-28T04:16:23.438Z,11.05
2018-11-28T04:18:53.456Z,11.12
2018-11-28T04:21:23.133Z,11.10
2018-11-28T04:23:53.348Z,11.16
2018-11-28T04:26:22.547Z,11.17
2018-11-28T04:28:51.676Z,11.15
2018-11-28T04:31:22.068Z,11.13
2018-11-28T04:33:52.075Z,11.09
2018-11-28T04:36:21.322Z,11.06
2018-11-28T04:38:51.047Z,11.05
2018-11-28T04:41:22.137Z,11.07
2018-11-28T04:43:52.445Z,11.09
2018-11-28T04:46:21.686Z,11.10
2018-11-28T04:48:51.666Z,11.09
2018-11-28T04:51:21.198Z,11.10
2018-11-28T04:53:54.795Z,11.14
2018-11-28T04:56:25.671Z,11.15
2018-11-28T04:58:54.801Z,11.17
2018-11-28T05:01:24.063Z,11.22
2018-11-28T05:03:53.481Z,11.25
2018-11-28T05:06:33.447Z,11.26
2018-11-28T05:09:02.658Z,11.24
2018-11-28T05:11:32.631Z,11.29
2018-11-28T05:14:02.669Z,11.27
2018-11-28T05:16:32.778Z,11.33
2018-11-28T05:19:01.930Z,11.37
2018-11-28T05:21:31.357Z,11.41
2018-11-28T05:24:00.479Z,11.45
2018-11-28T05:26:29.669Z,11.44
2018-11-28T05:28:58.772Z,11.43
2018-11-28T05:31:27.911Z,11.40
2018-11-28T05:33:57.069Z,11.48
2018-11-28T05:36:26.297Z,11.57
2018-11-28T05:38:55.458Z,11.64
2018-11-28T05:41:24.696Z,11.62
2018-11-28T05:43:53.954Z,11.62
2018-11-28T05:46:23.214Z,11.58
2018-11-28T05:48:52.592Z,11.57
2018-11-28T05:51:22.527Z,11.60
2018-11-28T05:53:51.725Z,11.70
2018-11-28T05:56:21.618Z,11.77
2018-11-28T05:58:51.055Z,11.76
2018-11-28T06:01:21.574Z,11.72
2018-11-28T06:03:51.749Z,11.66
2018-11-28T06:06:20.853Z,11.66
2018-11-28T06:08:50.590Z,11.65
2018-11-28T06:11:20.183Z,11.62
2018-11-28T06:13:49.313Z,11.57
2018-11-28T06:16:18.499Z,11.57
2018-11-28T06:18:47.883Z,11.61
2018-11-28T06:21:17.178Z,11.57
2018-11-28T06:23:46.385Z,11.54
2018-11-28T06:26:15.735Z,11.56
2018-11-28T06:28:46.183Z,11.66
2018-11-28T06:31:15.463Z,11.75
2018-11-28T06:33:44.593Z,11.78
2018-11-28T06:36:14.127Z,11.78
2018-11-28T06:38:44.613Z,11.76
2018-11-28T06:41:13.994Z,11.77
2018-11-28T06:43:43.162Z,11.86
2018-11-28T06:46:12.641Z,11.93
2018-11-28T06:48:42.611Z,12.01
2018-11-28T06:51:11.767Z,12.01
2018-11-28T06:53:41.123Z,12.05
2018-11-28T06:56:11.322Z,12.12
2018-11-28T06:58:42.608Z,12.16
2018-11-28T07:01:11.886Z,12.17
2018-11-28T07:03:41.006Z,12.18
2018-11-28T07:06:11.371Z,12.22
2018-11-28T07:08:42.905Z,12.29
2018-11-28T07:11:12.282Z,12.30
2018-11-28T07:13:41.470Z,12.26
2018-11-28T07:16:10.749Z,12.27
2018-11-28T07:18:51.845Z,12.27
2018-11-28T07:21:21.126Z,12.29
2018-11-28T07:23:50.247Z,12.36
2018-11-28T07:26:19.363Z,12.39
2018-11-28T07:28:49.035Z,12.38
2018-11-28T07:31:18.305Z,12.40
2018-11-28T07:33:47.493Z,12.33
2018-11-28T07:36:17.049Z,12.30
2018-11-28T07:38:46.295Z,12.35
2018-11-28T07:41:16.043Z,12.42
2018-11-28T07:43:45.263Z,12.47
2018-11-28T07:46:14.477Z,12.46
2018-11-28T07:48:43.666Z,12.46
2018-11-28T07:51:13.496Z,12.52
2018-11-28T07:53:43.486Z,12.55
2018-11-28T07:56:13.194Z,12.58
2018-11-28T07:58:42.319Z,12.61
2018-11-28T08:01:12.507Z,12.57
2018-11-28T08:03:41.864Z,12.56
2018-11-28T08:06:11.190Z,12.55
2018-11-28T08:08:40.301Z,12.55
2018-11-28T08:11:10.115Z,12.58
2018-11-28T08:13:39.350Z,12.59
2018-11-28T08:16:09.451Z,12.62
2018-11-28T08:18:38.629Z,12.67
2018-11-28T08:21:08.162Z,12.70
2018-11-28T08:23:37.434Z,12.70
2018-11-28T08:26:06.635Z,12.74
2018-11-28T08:28:36.189Z,12.79
2018-11-28T08:31:12.349Z,12.88
2018-11-28T08:33:41.663Z,12.92
2018-11-28T08:36:11.207Z,12.94
2018-11-28T08:38:40.725Z,13.00
2018-11-28T08:41:10.010Z,13.06
2018-11-28T08:43:39.285Z,13.07
2018-11-28T08:46:08.452Z,13.04
2018-11-28T08:48:37.718Z,13.05
2018-11-28T08:51:09.259Z,13.03
2018-11-28T08:53:38.409Z,13.04
2018-11-28T08:56:07.677Z,13.06
2018-11-28T08:58:36.878Z,13.10
2018-11-28T09:01:07.140Z,13.09
2018-11-28T09:03:36.394Z,13.08
2018-11-28T09:06:06.287Z,13.08
2018-11-28T09:08:36.047Z,13.09
2018-11-28T09:11:05.354Z,13.09
2018-11-28T09:13:35.235Z,13.10
2018-11-28T09:16:05.385Z,13.17
2018-11-28T09:18:34.735Z,13.20
2018-11-28T09:21:05.698Z,13.24
2018-11-28T09:23:34.971Z,13.30
2018-11-28T09:26:04.054Z,13.32
2018-11-28T09:28:33.327Z,13.31
2018-11-28T09:31:04.238Z,13.28
2018-11-28T09:33:33.479Z,13.31
2018-11-28T09:36:02.725Z,13.33
2018-11-28T09:38:31.834Z,13.34
2018-11-28T09:41:01.812Z,13.31
2018-11-28T09:43:32.325Z,13.26
2018-11-28T09:46:01.971Z,13.22
2018-11-28T09:48:32.153Z,13.22
2018-11-28T09:51:01.760Z,13.14
2018-11-28T09:53:31.020Z,13.16
2018-11-28T09:56:00.082Z,13.25
2018-11-28T09:58:33.658Z,13.32
2018-11-28T10:01:02.737Z,13.32
2018-11-28T10:03:31.935Z,13.29
2018-11-28T10:06:01.285Z,13.29
2018-11-28T10:08:30.968Z,13.34
2018-11-28T10:11:00.819Z,13.38
2018-11-28T10:13:30.714Z,13.44
2018-11-28T10:16:00.929Z,13.44
2018-11-28T10:18:29.223Z,13.45
2018-11-28T10:20:58.892Z,13.48
2018-11-28T10:23:28.028Z,13.62
2018-11-28T10:26:01.291Z,13.70
2018-11-28T10:28:30.491Z,13.73
2018-11-28T10:30:59.567Z,13.74
2018-11-28T10:33:28.587Z,13.73
2018-11-28T10:35:58.599Z,13.72
2018-11-28T10:38:27.875Z,13.70
2018-11-28T10:40:57.943Z,13.69
2018-11-28T10:43:27.230Z,13.73
2018-11-28T10:45:56.347Z,13.75
2018-11-28T10:48:25.365Z,13.74
2018-11-28T10:50:55.450Z,13.76
2018-11-28T10:53:24.650Z,13.81
2018-11-28T10:55:54.958Z,13.83
2018-11-28T10:58:24.055Z,13.78
2018-11-28T11:00:59.499Z,13.78
2018-11-28T11:03:33.666Z,13.79
2018-11-28T11:06:05.356Z,13.83
2018-11-28T11:08:45.272Z,13.93
2018-11-28T11:11:24.519Z,14.01
2018-11-28T11:13:59.081Z,14.03
2018-11-28T11:16:30.863Z,14.00
2018-11-28T11:19:00.307Z,13.93
2018-11-28T11:21:29.934Z,13.97
2018-11-28T11:23:59.255Z,13.99
2018-11-28T11:26:29.146Z,14.02
2018-11-28T11:28:58.285Z,14.04
2018-11-28T11:31:27.820Z,14.05
2018-11-28T11:33:57.228Z,14.04
2018-11-28T11:36:27.084Z,14.04
2018-11-28T11:38:56.228Z,14.01
2018-11-28T11:41:25.436Z,14.04
2018-11-28T11:43:54.619Z,14.04
2018-11-28T11:46:24.998Z,14.03
2018-11-28T11:48:54.778Z,14.00
2018-11-28T11:51:23.867Z,13.95
2018-11-28T11:53:53.330Z,13.89
2018-11-28T11:56:22.628Z,13.86
2018-11-28T11:58:52.616Z,13.81
2018-11-28T12:01:21.806Z,13.82
2018-11-28T12:03:50.910Z,13.89
2018-11-28T12:06:21.283Z,13.96
2018-11-28T12:08:58.166Z,14.01
2018-11-28T12:11:27.464Z,14.04
2018-11-28T12:13:56.638Z,14.00
2018-11-28T12:16:25.820Z,13.92
2018-11-28T12:18:55.207Z,13.86
2018-11-28T12:21:25.815Z,13.93
2018-11-28T12:23:54.952Z,14.01
2018-11-28T12:26:24.695Z,14.01
2018-11-28T12:28:53.957Z,13.98
2018-11-28T12:31:23.689Z,14.05
2018-11-28T12:33:52.780Z,14.11
2018-11-28T12:36:21.991Z,14.15
2018-11-28T12:38:51.880Z,14.14
2018-11-28T12:41:22.651Z,14.09
2018-11-28T12:43:52.193Z,14.03
2018-11-28T12:46:21.429Z,14.00
2018-11-28T12:48:51.126Z,13.95
2018-11-28T12:51:20.392Z,13.92
2018-11-28T12:53:50.376Z,13.89
2018-11-28T12:56:19.608Z,13.91
2018-11-28T13:04:48.264Z,13.97
2018-11-28T13:07:17.712Z,14.02
2018-11-28T13:09:47.051Z,14.02
2018-11-28T13:12:16.202Z,14.05
2018-11-28T13:14:45.700Z,14.08
2018-11-28T13:17:14.996Z,14.09
2018-11-28T13:19:44.402Z,14.06
2018-11-28T13:22:13.796Z,14.03
2018-11-28T13:24:43.105Z,14.05
2018-11-28T13:27:12.448Z,14.04
2018-11-28T13:29:41.931Z,14.03
2018-11-28T13:32:11.515Z,14.07
2018-11-28T13:34:41.627Z,14.10
2018-11-28T13:37:10.781Z,14.13
2018-11-28T13:39:40.537Z,14.17
2018-11-28T13:42:10.058Z,14.21
2018-11-28T13:44:39.278Z,14.21
2018-11-28T13:47:08.883Z,14.23
2018-11-28T13:49:38.049Z,14.23
2018-11-28T13:52:07.815Z,14.22
2018-11-28T13:55:36.839Z,14.25
2018-11-28T13:57:09.844Z,14.26
2018-11-28T13:59:40.943Z,14.28
2018-11-28T14:02:10.360Z,14.25
2018-11-28T14:04:41.162Z,14.22
2018-11-28T14:07:12.736Z,14.24
2018-11-28T14:09:42.252Z,14.27
2018-11-28T14:12:11.630Z,14.25
2018-11-28T14:14:40.979Z,14.22
2018-11-28T14:17:10.584Z,14.21
2018-11-28T14:19:40.952Z,14.18
2018-11-28T14:22:10.637Z,14.13
2018-11-28T14:24:39.789Z,14.11
2018-11-28T14:27:09.890Z,14.08
2018-11-28T14:29:39.034Z,14.01
2018-11-28T14:32:08.256Z,13.97
2018-11-28T14:34:37.457Z,13.98
2018-11-28T14:37:06.835Z,14.00
2018-11-28T14:39:36.411Z,14.03
2018-11-28T14:42:06.036Z,14.04
2018-11-28T14:44:36.057Z,14.05
2018-11-28T14:47:16.270Z,14.05
2018-11-28T14:49:45.545Z,14.10
2018-11-28T14:52:14.697Z,14.12
2018-11-28T14:54:44.362Z,14.10
2018-11-28T14:57:13.630Z,14.09
2018-11-28T14:59:42.817Z,14.09
2018-11-28T15:02:24.113Z,14.08
2018-11-28T15:04:53.210Z,14.04
2018-11-28T15:07:23.204Z,14.01
2018-11-28T15:09:53.172Z,13.97
2018-11-28T15:12:23.076Z,13.96
2018-11-28T15:14:53.595Z,13.96
2018-11-28T15:17:24.553Z,13.95
2018-11-28T15:19:55.824Z,13.94
2018-11-28T15:22:25.123Z,13.94
2018-11-28T15:25:00.377Z,13.91
2018-11-28T15:27:30.215Z,13.89
2018-11-28T15:30:00.067Z,13.89
2018-11-28T15:32:29.389Z,13.91
2018-11-28T15:34:58.538Z,13.94
2018-11-28T15:37:28.668Z,13.96
2018-11-28T15:39:58.254Z,13.98
2018-11-28T15:42:29.360Z,13.97
2018-11-28T15:44:58.693Z,13.95
2018-11-28T15:47:27.961Z,13.93
2018-11-28T15:49:58.279Z,13.91
2018-11-28T15:52:27.637Z,13.86
2018-11-28T15:54:56.673Z,13.81
2018-11-28T15:57:26.000Z,13.75
2018-11-28T15:59:55.252Z,13.71
2018-11-28T16:02:24.679Z,13.69
2018-11-28T16:04:53.883Z,13.69
2018-11-28T16:07:23.007Z,13.67
2018-11-28T16:09:57.155Z,13.64
2018-11-28T16:12:26.329Z,13.63
2018-11-28T16:14:55.548Z,13.60
2018-11-28T16:17:24.762Z,13.57
2018-11-28T16:19:53.815Z,13.55
2018-11-28T16:22:24.034Z,13.52
2018-11-28T16:24:53.186Z,13.50
2018-11-28T16:27:22.184Z,13.47
2018-11-28T16:29:51.232Z,13.45
2018-11-28T16:32:20.281Z,13.41
2018-11-28T16:34:49.391Z,13.38
2018-11-28T16:37:19.451Z,13.35
2018-11-28T16:39:48.652Z,13.34
2018-11-28T16:42:18.478Z,13.31
2018-11-28T16:44:47.526Z,13.30
2018-11-28T16:47:16.684Z,13.30
2018-11-28T16:49:45.876Z,13.30
2018-11-28T16:52:14.935Z,13.30
2018-11-28T16:54:44.023Z,13.29
2018-11-28T16:57:13.227Z,13.29
2018-11-28T16:59:42.516Z,13.30
2018-11-28T17:02:11.614Z,13.32
2018-11-28T17:04:40.787Z,13.34
2018-11-28T17:07:09.915Z,13.38
2018-11-28T17:09:39.046Z,13.45
2018-11-28T17:12:08.186Z,13.46
2018-11-28T17:14:37.571Z,13.45
2018-11-28T17:17:07.174Z,13.43
2018-11-28T17:19:36.266Z,13.41
2018-11-28T17:22:05.783Z,13.37
2018-11-28T17:24:34.924Z,13.36
2018-11-28T17:27:04.103Z,13.35
2018-11-28T17:29:33.195Z,13.37
2018-11-28T17:32:02.341Z,13.36
2018-11-28T17:34:31.639Z,13.34
2018-11-28T17:37:00.879Z,13.33
2018-11-28T17:39:30.111Z,13.34
2018-11-28T17:41:59.251Z,13.35
2018-11-28T17:44:28.591Z,13.36
2018-11-28T17:47:04.532Z,13.35
2018-11-28T17:49:33.586Z,13.35
2018-11-28T17:52:07.288Z,13.33
2018-11-28T17:54:37.457Z,13.33
2018-11-28T17:57:07.018Z,13.32
2018-11-28T17:59:36.738Z,13.32
2018-11-28T18:02:05.879Z,13.32
2018-11-28T18:04:35.054Z,13.33
2018-11-28T18:07:05.010Z,13.30
2018-11-28T18:09:35.850Z,13.26
2018-11-28T18:12:05.047Z,13.22
2018-11-28T18:14:34.620Z,13.11
2018-11-28T18:17:03.831Z,13.02
2018-11-28T18:19:33.967Z,12.92
2018-11-28T18:22:03.107Z,12.84
2018-11-28T18:24:32.283Z,12.76
2018-11-28T18:27:01.357Z,12.70
2018-11-28T18:29:30.494Z,12.65
2018-11-28T18:31:59.663Z,12.62
2018-11-28T18:34:28.760Z,12.62
2018-11-28T18:36:57.952Z,12.66
2018-11-28T18:39:27.194Z,12.69
2018-11-28T18:41:56.274Z,12.72
2018-11-28T18:44:25.322Z,12.72
2018-11-28T18:46:54.434Z,12.70
2018-11-28T18:49:23.612Z,12.67
2018-11-28T18:51:52.762Z,12.65
2018-11-28T18:54:22.598Z,12.63
2018-11-28T18:56:51.957Z,12.62
2018-11-28T18:59:21.091Z,12.61
2018-11-28T19:01:50.489Z,12.59
2018-11-28T19:04:19.748Z,12.59
2018-11-28T19:06:49.092Z,12.59
2018-11-28T19:09:23.294Z,12.60
2018-11-28T19:11:52.693Z,12.61
2018-11-28T19:14:21.972Z,12.59
2018-11-28T19:16:51.641Z,12.58
2018-11-28T19:19:21.105Z,12.59
2018-11-28T19:21:50.524Z,12.60
2018-11-28T19:24:20.603Z,12.58
2018-11-28T19:26:49.785Z,12.56
2018-11-28T19:29:19.763Z,12.53
2018-11-28T19:31:48.800Z,12.53
2018-11-28T19:34:18.284Z,12.52
2018-11-28T19:36:47.174Z,12.52
2018-11-28T19:39:16.468Z,12.49
2018-11-28T19:41:45.564Z,12.45
2018-11-28T19:44:14.654Z,12.45
2018-11-28T19:46:43.815Z,12.45
2018-11-28T19:49:12.928Z,12.47
2018-11-28T19:51:42.048Z,12.47
2018-11-28T19:54:11.238Z,12.47
2018-11-28T19:56:40.475Z,12.46
2018-11-28T19:59:09.508Z,12.45
2018-11-28T20:01:38.706Z,12.46
2018-11-28T20:04:08.056Z,12.45
2018-11-28T20:06:38.171Z,12.43
2018-11-28T20:09:14.883Z,12.42
2018-11-28T20:11:44.020Z,12.39
2018-11-28T20:14:13.646Z,12.35
2018-11-28T20:16:42.835Z,12.32
2018-11-28T20:19:17.415Z,12.29
2018-11-28T20:21:41.295Z,12.26
2018-11-28T20:24:10.888Z,12.23
2018-11-28T20:26:40.147Z,12.19
2018-11-28T20:29:09.627Z,12.17
2018-11-28T20:31:38.825Z,12.14
2018-11-28T20:34:07.868Z,12.09
2018-11-28T20:36:37.099Z,12.04
2018-11-28T20:39:09.182Z,12.00
2018-11-28T20:41:38.334Z,11.95
2018-11-28T20:44:07.545Z,11.91
2018-11-28T20:46:36.726Z,11.89
2018-11-28T20:49:05.867Z,11.86
2018-11-28T20:51:34.995Z,11.82
2018-11-28T20:54:04.213Z,11.79
2018-11-28T20:56:33.345Z,11.74
2018-11-28T20:59:02.532Z,11.69
2018-11-28T21:01:31.721Z,11.63
2018-11-28T21:04:01.152Z,11.57
2018-11-28T21:06:30.321Z,11.54
2018-11-28T21:08:59.396Z,11.51
2018-11-28T21:11:28.511Z,11.47
2018-11-28T21:13:57.736Z,11.42
2018-11-28T21:16:26.960Z,11.39
2018-11-28T21:18:56.027Z,11.35
2018-11-28T21:21:27.512Z,11.30
2018-11-28T21:23:56.517Z,11.27
2018-11-28T21:26:25.648Z,11.24
2018-11-28T21:28:54.743Z,11.20
2018-11-28T21:31:23.813Z,11.15
2018-11-28T21:33:52.828Z,11.11
2018-11-28T21:36:21.987Z,11.07
2018-11-28T21:38:51.063Z,11.02
2018-11-28T21:41:20.200Z,10.99
2018-11-28T21:43:52.888Z,10.94
2018-11-28T21:46:25.168Z,10.91
2018-11-28T21:48:57.840Z,10.87
2018-11-28T21:51:33.374Z,10.83
2018-11-28T21:54:06.247Z,10.78
2018-11-28T21:56:39.586Z,10.75
2018-11-28T21:59:11.201Z,10.73
2018-11-28T22:01:42.446Z,10.69
2018-11-28T22:04:14.931Z,10.66
2018-11-28T22:06:44.037Z,10.64
2018-11-28T22:09:13.139Z,10.63
2018-11-28T22:11:42.326Z,10.61
2018-11-28T22:14:11.908Z,10.58
2018-11-28T22:16:41.022Z,10.58
2018-11-28T22:19:10.145Z,10.57
2018-11-28T22:21:39.174Z,10.56
2018-11-28T22:24:08.314Z,10.54
2018-11-28T22:26:37.432Z,10.52
2018-11-28T22:29:06.955Z,10.50
2018-11-28T22:31:35.993Z,10.47
2018-11-28T22:34:05.106Z,10.46
2018-11-28T22:36:35.085Z,10.45
2018-11-28T22:39:05.448Z,10.45
2018-11-28T22:41:34.655Z,10.43
2018-11-28T22:44:03.819Z,10.40
2018-11-28T22:46:32.936Z,10.37
2018-11-28T22:49:02.190Z,10.36
2018-11-28T22:51:31.310Z,10.34
2018-11-28T22:54:00.518Z,10.32
2018-11-28T22:56:29.643Z,10.32
2018-11-28T22:58:58.750Z,10.30
2018-11-28T23:01:42.763Z,10.30
2018-11-28T23:04:12.608Z,10.31
2018-11-28T23:06:44.572Z,10.32
2018-11-28T23:09:13.630Z,10.33
2018-11-28T23:11:42.753Z,10.37
2018-11-28T23:14:11.807Z,10.41
2018-11-28T23:16:40.876Z,10.44
2018-11-28T23:19:09.998Z,10.47
2018-11-28T23:21:39.145Z,10.49
2018-11-28T23:24:08.221Z,10.52
2018-11-28T23:26:37.261Z,10.55
2018-11-28T23:29:06.431Z,10.58
2018-11-28T23:31:35.569Z,10.61
2018-11-28T23:34:04.641Z,10.65
2018-11-28T23:36:33.700Z,10.66
2018-11-28T23:39:02.876Z,10.68
2018-11-28T23:41:31.951Z,10.71
2018-11-28T23:44:19.073Z,10.73
2018-11-28T23:47:06.027Z,10.77
2018-11-28T23:49:52.129Z,10.83
2018-11-28T23:52:21.457Z,10.89
2018-11-28T23:55:07.678Z,10.93
2018-11-28T23:57:54.033Z,10.98
